sensor_id;sensor_type;location;lat;lon;timestamp;pressure;altitude;pressure_sealevel;temperature;humidity
11542;BME280;5827;49.482;7.716;2023-04-21T00:00:24;98447.09;;;7.75;100.00
11542;BME280;5827;49.482;7.716;2023-04-21T00:02:25;98445.69;;;7.72;100.00
11542;BME280;5827;49.482;7.716;2023-04-21T00:04:27;98453.69;;;7.84;100.00
11542;BME280;5827;49.482;7.716;2023-04-21T00:06:28;98446.84;;;7.88;100.00
11542;BME280;5827;49.482;7.716;2023-04-21T00:08:30;98450.88;;;7.90;100.00
11542;BME280;5827;49.482;7.716;2023-04-21T00:10:32;98444.75;;;7.90;100.00
11542;BME280;5827;49.482;7.716;2023-04-21T00:12:35;98448.47;;;7.89;100.00
11542;BME280;5827;49.482;7.716;2023-04-21T00:14:36;98450.06;;;7.90;100.00
11542;BME280;5827;49.482;7.716;2023-04-21T00:16:39;98444.84;;;7.95;100.00
11542;BME280;5827;49.482;7.716;2023-04-21T00:18:40;98445.91;;;7.94;100.00
11542;BME280;5827;49.482;7.716;2023-04-21T00:20:42;98444.59;;;7.97;100.00
11542;BME280;5827;49.482;7.716;2023-04-21T00:22:44;98440.31;;;7.96;100.00
11542;BME280;5827;49.482;7.716;2023-04-21T00:24:45;98440.34;;;7.84;100.00
11542;BME280;5827;49.482;7.716;2023-04-21T00:26:47;98433.50;;;7.88;100.00
11542;BME280;5827;49.482;7.716;2023-04-21T00:28:50;98431.66;;;7.88;100.00
11542;BME280;5827;49.482;7.716;2023-04-21T00:30:51;98423.88;;;7.87;100.00
11542;BME280;5827;49.482;7.716;2023-04-21T00:32:53;98421.53;;;7.79;100.00
11542;BME280;5827;49.482;7.716;2023-04-21T00:34:55;98420.97;;;7.77;100.00
11542;BME280;5827;49.482;7.716;2023-04-21T00:36:56;98420.06;;;7.71;100.00
11542;BME280;5827;49.482;7.716;2023-04-21T00:38:58;98417.75;;;7.63;100.00
11542;BME280;5827;49.482;7.716;2023-04-21T00:40:59;98418.69;;;7.45;100.00
11542;BME280;5827;49.482;7.716;2023-04-21T00:43:04;98404.78;;;7.43;100.00
11542;BME280;5827;49.482;7.716;2023-04-21T00:45:08;98419.72;;;7.44;100.00
11542;BME280;5827;49.482;7.716;2023-04-21T00:47:10;98419.97;;;7.43;100.00
11542;BME280;5827;49.482;7.716;2023-04-21T00:49:12;98414.63;;;7.43;100.00
11542;BME280;5827;49.482;7.716;2023-04-21T00:51:13;98420.28;;;7.11;100.00
11542;BME280;5827;49.482;7.716;2023-04-21T00:53:15;98413.34;;;7.22;100.00
11542;BME280;5827;49.482;7.716;2023-04-21T00:55:17;98416.56;;;7.24;100.00
11542;BME280;5827;49.482;7.716;2023-04-21T00:57:19;98414.75;;;7.24;100.00
11542;BME280;5827;49.482;7.716;2023-04-21T00:59:21;98410.56;;;7.17;100.00
11542;BME280;5827;49.482;7.716;2023-04-21T01:01:24;98407.78;;;7.11;100.00
11542;BME280;5827;49.482;7.716;2023-04-21T01:03:26;98405.56;;;7.08;100.00
11542;BME280;5827;49.482;7.716;2023-04-21T01:05:28;98394.75;;;6.92;100.00
11542;BME280;5827;49.482;7.716;2023-04-21T01:07:31;98393.94;;;6.91;100.00
11542;BME280;5827;49.482;7.716;2023-04-21T01:09:33;98402.88;;;6.97;100.00
11542;BME280;5827;49.482;7.716;2023-04-21T01:11:34;98399.38;;;6.84;100.00
11542;BME280;5827;49.482;7.716;2023-04-21T01:13:36;98395.53;;;6.80;100.00
11542;BME280;5827;49.482;7.716;2023-04-21T01:15:38;98401.56;;;6.76;100.00
11542;BME280;5827;49.482;7.716;2023-04-21T01:17:41;98393.44;;;6.71;100.00
11542;BME280;5827;49.482;7.716;2023-04-21T01:19:43;98391.00;;;6.69;100.00
11542;BME280;5827;49.482;7.716;2023-04-21T01:21:47;98395.75;;;6.67;100.00
11542;BME280;5827;49.482;7.716;2023-04-21T01:23:48;98393.31;;;6.66;100.00
11542;BME280;5827;49.482;7.716;2023-04-21T01:25:50;98399.06;;;6.62;100.00
11542;BME280;5827;49.482;7.716;2023-04-21T01:27:51;98396.66;;;6.61;100.00
11542;BME280;5827;49.482;7.716;2023-04-21T01:29:53;98400.56;;;6.58;100.00
11542;BME280;5827;49.482;7.716;2023-04-21T01:31:54;98397.69;;;6.60;100.00
11542;BME280;5827;49.482;7.716;2023-04-21T01:33:56;98397.34;;;6.56;100.00
11542;BME280;5827;49.482;7.716;2023-04-21T01:35:57;98401.47;;;6.52;100.00
11542;BME280;5827;49.482;7.716;2023-04-21T01:38:01;98399.50;;;6.48;100.00
11542;BME280;5827;49.482;7.716;2023-04-21T01:40:05;98396.34;;;6.39;100.00
11542;BME280;5827;49.482;7.716;2023-04-21T01:42:07;98397.81;;;6.35;100.00
11542;BME280;5827;49.482;7.716;2023-04-21T01:44:09;98398.72;;;6.29;100.00
11542;BME280;5827;49.482;7.716;2023-04-21T01:46:11;98406.09;;;6.27;100.00
11542;BME280;5827;49.482;7.716;2023-04-21T01:48:12;98397.56;;;6.25;100.00
11542;BME280;5827;49.482;7.716;2023-04-21T01:50:14;98401.03;;;6.25;100.00
11542;BME280;5827;49.482;7.716;2023-04-21T01:52:15;98400.13;;;6.31;100.00
11542;BME280;5827;49.482;7.716;2023-04-21T01:54:18;98393.41;;;6.29;100.00
11542;BME280;5827;49.482;7.716;2023-04-21T01:56:20;98399.31;;;6.31;100.00
11542;BME280;5827;49.482;7.716;2023-04-21T01:58:21;98394.16;;;6.18;100.00
11542;BME280;5827;49.482;7.716;2023-04-21T02:00:23;98405.16;;;6.21;100.00
11542;BME280;5827;49.482;7.716;2023-04-21T02:02:24;98406.19;;;6.20;100.00
11542;BME280;5827;49.482;7.716;2023-04-21T02:04:26;98403.41;;;6.15;100.00
11542;BME280;5827;49.482;7.716;2023-04-21T02:06:28;98400.22;;;6.06;100.00
11542;BME280;5827;49.482;7.716;2023-04-21T02:08:30;98391.59;;;5.93;100.00
11542;BME280;5827;49.482;7.716;2023-04-21T02:10:33;98386.84;;;5.95;100.00
11542;BME280;5827;49.482;7.716;2023-04-21T02:12:34;98392.78;;;5.97;100.00
11542;BME280;5827;49.482;7.716;2023-04-21T02:14:36;98390.56;;;5.94;100.00
11542;BME280;5827;49.482;7.716;2023-04-21T02:16:38;98396.09;;;5.92;100.00
11542;BME280;5827;49.482;7.716;2023-04-21T02:18:39;98401.59;;;5.91;100.00
11542;BME280;5827;49.482;7.716;2023-04-21T02:20:41;98397.72;;;5.93;100.00
11542;BME280;5827;49.482;7.716;2023-04-21T02:22:43;98397.78;;;5.86;100.00
11542;BME280;5827;49.482;7.716;2023-04-21T02:24:44;98405.59;;;5.81;100.00
11542;BME280;5827;49.482;7.716;2023-04-21T02:26:47;98410.56;;;5.78;100.00
11542;BME280;5827;49.482;7.716;2023-04-21T02:28:49;98408.75;;;5.72;100.00
11542;BME280;5827;49.482;7.716;2023-04-21T02:30:50;98406.19;;;5.65;100.00
11542;BME280;5827;49.482;7.716;2023-04-21T02:32:52;98413.06;;;5.54;100.00
11542;BME280;5827;49.482;7.716;2023-04-21T02:34:53;98409.19;;;5.50;100.00
11542;BME280;5827;49.482;7.716;2023-04-21T02:36:55;98408.53;;;5.55;100.00
11542;BME280;5827;49.482;7.716;2023-04-21T02:38:56;98406.09;;;5.53;100.00
11542;BME280;5827;49.482;7.716;2023-04-21T02:40:58;98409.63;;;5.47;100.00
11542;BME280;5827;49.482;7.716;2023-04-21T02:43:01;98410.44;;;5.48;100.00
11542;BME280;5827;49.482;7.716;2023-04-21T02:45:03;98405.56;;;5.45;100.00
11542;BME280;5827;49.482;7.716;2023-04-21T02:47:05;98407.69;;;5.36;100.00
11542;BME280;5827;49.482;7.716;2023-04-21T02:49:06;98407.22;;;5.21;100.00
11542;BME280;5827;49.482;7.716;2023-04-21T02:51:11;98405.84;;;5.37;100.00
11542;BME280;5827;49.482;7.716;2023-04-21T02:53:12;98416.03;;;5.40;100.00
11542;BME280;5827;49.482;7.716;2023-04-21T02:55:14;98418.00;;;5.26;100.00
11542;BME280;5827;49.482;7.716;2023-04-21T02:57:15;98408.34;;;5.31;100.00
11542;BME280;5827;49.482;7.716;2023-04-21T02:59:18;98412.19;;;5.35;100.00
11542;BME280;5827;49.482;7.716;2023-04-21T03:01:20;98407.75;;;5.29;100.00
11542;BME280;5827;49.482;7.716;2023-04-21T03:03:21;98421.25;;;5.28;100.00
11542;BME280;5827;49.482;7.716;2023-04-21T03:05:23;98416.59;;;5.23;100.00
11542;BME280;5827;49.482;7.716;2023-04-21T03:07:25;98419.25;;;5.23;100.00
11542;BME280;5827;49.482;7.716;2023-04-21T03:09:27;98421.69;;;5.25;100.00
11542;BME280;5827;49.482;7.716;2023-04-21T03:11:28;98423.75;;;5.23;100.00
11542;BME280;5827;49.482;7.716;2023-04-21T03:13:30;98420.28;;;5.22;100.00
11542;BME280;5827;49.482;7.716;2023-04-21T03:15:33;98423.38;;;5.19;100.00
11542;BME280;5827;49.482;7.716;2023-04-21T03:17:34;98426.19;;;5.24;100.00
11542;BME280;5827;49.482;7.716;2023-04-21T03:19:36;98428.44;;;5.21;100.00
11542;BME280;5827;49.482;7.716;2023-04-21T03:21:38;98424.75;;;5.22;100.00
11542;BME280;5827;49.482;7.716;2023-04-21T03:23:39;98427.88;;;5.19;100.00
11542;BME280;5827;49.482;7.716;2023-04-21T03:25:41;98426.22;;;5.18;100.00
11542;BME280;5827;49.482;7.716;2023-04-21T03:27:42;98432.34;;;4.93;100.00
11542;BME280;5827;49.482;7.716;2023-04-21T03:29:44;98428.41;;;5.02;100.00
11542;BME280;5827;49.482;7.716;2023-04-21T03:31:46;98432.03;;;5.08;100.00
11542;BME280;5827;49.482;7.716;2023-04-21T03:33:48;98431.66;;;5.04;100.00
11542;BME280;5827;49.482;7.716;2023-04-21T03:35:49;98429.53;;;5.13;100.00
11542;BME280;5827;49.482;7.716;2023-04-21T03:37:51;98428.88;;;5.18;100.00
11542;BME280;5827;49.482;7.716;2023-04-21T03:39:52;98425.31;;;5.30;100.00
11542;BME280;5827;49.482;7.716;2023-04-21T03:41:53;98428.78;;;5.31;100.00
11542;BME280;5827;49.482;7.716;2023-04-21T03:43:55;98426.72;;;5.33;100.00
11542;BME280;5827;49.482;7.716;2023-04-21T03:45:56;98428.50;;;5.39;100.00
11542;BME280;5827;49.482;7.716;2023-04-21T03:47:59;98420.38;;;5.34;100.00
11542;BME280;5827;49.482;7.716;2023-04-21T03:50:02;98418.06;;;5.19;100.00
11542;BME280;5827;49.482;7.716;2023-04-21T03:52:04;98418.22;;;5.24;100.00
11542;BME280;5827;49.482;7.716;2023-04-21T03:54:05;98415.97;;;5.21;100.00
11542;BME280;5827;49.482;7.716;2023-04-21T03:56:08;98413.72;;;5.25;100.00
11542;BME280;5827;49.482;7.716;2023-04-21T03:58:09;98415.41;;;5.19;100.00
11542;BME280;5827;49.482;7.716;2023-04-21T04:00:12;98410.66;;;5.21;100.00
11542;BME280;5827;49.482;7.716;2023-04-21T04:02:14;98403.50;;;5.22;100.00
11542;BME280;5827;49.482;7.716;2023-04-21T04:04:16;98397.19;;;5.23;100.00
11542;BME280;5827;49.482;7.716;2023-04-21T04:06:18;98407.84;;;5.16;100.00
11542;BME280;5827;49.482;7.716;2023-04-21T04:08:19;98402.13;;;5.19;100.00
11542;BME280;5827;49.482;7.716;2023-04-21T04:10:21;98398.03;;;5.17;100.00
11542;BME280;5827;49.482;7.716;2023-04-21T04:12:22;98399.25;;;5.21;100.00
11542;BME280;5827;49.482;7.716;2023-04-21T04:14:24;98397.41;;;5.21;100.00
11542;BME280;5827;49.482;7.716;2023-04-21T04:16:25;98394.09;;;5.26;100.00
11542;BME280;5827;49.482;7.716;2023-04-21T04:18:28;98392.31;;;5.20;100.00
11542;BME280;5827;49.482;7.716;2023-04-21T04:20:30;98402.69;;;5.21;100.00
11542;BME280;5827;49.482;7.716;2023-04-21T04:22:32;98403.91;;;5.25;100.00
11542;BME280;5827;49.482;7.716;2023-04-21T04:24:33;98396.31;;;5.29;100.00
11542;BME280;5827;49.482;7.716;2023-04-21T04:26:35;98404.66;;;5.32;100.00
11542;BME280;5827;49.482;7.716;2023-04-21T04:28:37;98398.91;;;5.35;100.00
11542;BME280;5827;49.482;7.716;2023-04-21T04:30:39;98399.28;;;5.39;100.00
11542;BME280;5827;49.482;7.716;2023-04-21T04:32:41;98401.88;;;5.46;100.00
11542;BME280;5827;49.482;7.716;2023-04-21T04:34:42;98406.16;;;5.47;100.00
11542;BME280;5827;49.482;7.716;2023-04-21T04:36:45;98402.47;;;5.48;100.00
11542;BME280;5827;49.482;7.716;2023-04-21T04:38:47;98409.63;;;5.47;100.00
11542;BME280;5827;49.482;7.716;2023-04-21T04:40:52;98410.50;;;5.41;100.00
11542;BME280;5827;49.482;7.716;2023-04-21T04:42:54;98410.06;;;5.44;100.00
11542;BME280;5827;49.482;7.716;2023-04-21T04:44:55;98409.41;;;5.49;100.00
11542;BME280;5827;49.482;7.716;2023-04-21T04:46:58;98414.50;;;5.50;100.00
11542;BME280;5827;49.482;7.716;2023-04-21T04:49:00;98406.97;;;5.47;100.00
11542;BME280;5827;49.482;7.716;2023-04-21T04:51:01;98410.16;;;5.56;100.00
11542;BME280;5827;49.482;7.716;2023-04-21T04:53:04;98402.41;;;5.54;100.00
11542;BME280;5827;49.482;7.716;2023-04-21T04:55:07;98405.13;;;5.48;100.00
11542;BME280;5827;49.482;7.716;2023-04-21T04:57:08;98401.88;;;5.46;100.00
11542;BME280;5827;49.482;7.716;2023-04-21T04:59:10;98399.09;;;5.16;100.00
11542;BME280;5827;49.482;7.716;2023-04-21T05:01:12;98407.06;;;5.16;100.00
11542;BME280;5827;49.482;7.716;2023-04-21T05:03:14;98407.38;;;5.26;100.00
11542;BME280;5827;49.482;7.716;2023-04-21T05:05:15;98410.66;;;5.21;100.00
11542;BME280;5827;49.482;7.716;2023-04-21T05:07:16;98403.31;;;5.23;100.00
11542;BME280;5827;49.482;7.716;2023-04-21T05:09:20;98401.56;;;5.35;100.00
11542;BME280;5827;49.482;7.716;2023-04-21T05:11:21;98403.63;;;5.33;100.00
11542;BME280;5827;49.482;7.716;2023-04-21T05:13:23;98408.00;;;5.46;100.00
11542;BME280;5827;49.482;7.716;2023-04-21T05:15:24;98400.84;;;5.47;100.00
11542;BME280;5827;49.482;7.716;2023-04-21T05:17:26;98406.69;;;5.55;100.00
11542;BME280;5827;49.482;7.716;2023-04-21T05:19:30;98412.97;;;5.61;100.00
11542;BME280;5827;49.482;7.716;2023-04-21T05:21:31;98420.38;;;5.59;100.00
11542;BME280;5827;49.482;7.716;2023-04-21T05:23:33;98422.66;;;5.74;100.00
11542;BME280;5827;49.482;7.716;2023-04-21T05:25:36;98419.53;;;5.77;100.00
11542;BME280;5827;49.482;7.716;2023-04-21T05:27:37;98417.50;;;5.79;100.00
11542;BME280;5827;49.482;7.716;2023-04-21T05:29:39;98424.00;;;5.83;100.00
11542;BME280;5827;49.482;7.716;2023-04-21T05:31:40;98421.00;;;5.98;100.00
11542;BME280;5827;49.482;7.716;2023-04-21T05:33:42;98420.22;;;6.09;100.00
11542;BME280;5827;49.482;7.716;2023-04-21T05:35:43;98422.41;;;6.00;100.00
11542;BME280;5827;49.482;7.716;2023-04-21T05:37:45;98416.19;;;6.06;100.00
11542;BME280;5827;49.482;7.716;2023-04-21T05:39:46;98421.34;;;6.20;100.00
11542;BME280;5827;49.482;7.716;2023-04-21T05:41:49;98420.06;;;6.22;100.00
11542;BME280;5827;49.482;7.716;2023-04-21T05:43:50;98427.22;;;6.40;100.00
11542;BME280;5827;49.482;7.716;2023-04-21T05:45:52;98431.81;;;6.63;100.00
11542;BME280;5827;49.482;7.716;2023-04-21T05:47:53;98434.41;;;6.70;100.00
11542;BME280;5827;49.482;7.716;2023-04-21T05:49:55;98434.47;;;6.93;100.00
11542;BME280;5827;49.482;7.716;2023-04-21T05:51:56;98438.19;;;6.92;100.00
11542;BME280;5827;49.482;7.716;2023-04-21T05:53:58;98444.78;;;6.90;100.00
11542;BME280;5827;49.482;7.716;2023-04-21T05:55:59;98441.09;;;7.02;100.00
11542;BME280;5827;49.482;7.716;2023-04-21T05:58:02;98444.25;;;7.11;100.00
11542;BME280;5827;49.482;7.716;2023-04-21T06:00:05;98446.34;;;7.21;100.00
11542;BME280;5827;49.482;7.716;2023-04-21T06:02:07;98451.09;;;7.19;100.00
11542;BME280;5827;49.482;7.716;2023-04-21T06:04:09;98448.00;;;7.45;100.00
11542;BME280;5827;49.482;7.716;2023-04-21T06:06:10;98451.34;;;7.41;100.00
11542;BME280;5827;49.482;7.716;2023-04-21T06:08:13;98448.00;;;7.57;100.00
11542;BME280;5827;49.482;7.716;2023-04-21T06:10:16;98445.91;;;7.59;100.00
11542;BME280;5827;49.482;7.716;2023-04-21T06:12:17;98444.66;;;7.61;100.00
11542;BME280;5827;49.482;7.716;2023-04-21T06:14:20;98442.78;;;7.62;100.00
11542;BME280;5827;49.482;7.716;2023-04-21T06:16:21;98443.81;;;7.73;100.00
11542;BME280;5827;49.482;7.716;2023-04-21T06:18:25;98445.78;;;7.77;100.00
11542;BME280;5827;49.482;7.716;2023-04-21T06:20:27;98445.19;;;7.87;100.00
11542;BME280;5827;49.482;7.716;2023-04-21T06:22:28;98443.25;;;7.71;100.00
11542;BME280;5827;49.482;7.716;2023-04-21T06:24:31;98442.44;;;7.82;100.00
11542;BME280;5827;49.482;7.716;2023-04-21T06:26:32;98441.03;;;8.03;100.00
11542;BME280;5827;49.482;7.716;2023-04-21T06:28:35;98443.19;;;8.29;100.00
11542;BME280;5827;49.482;7.716;2023-04-21T06:30:39;98438.72;;;7.83;100.00
11542;BME280;5827;49.482;7.716;2023-04-21T06:32:41;98441.84;;;7.92;100.00
11542;BME280;5827;49.482;7.716;2023-04-21T06:34:42;98442.94;;;8.19;100.00
11542;BME280;5827;49.482;7.716;2023-04-21T06:36:44;98446.06;;;8.39;100.00
11542;BME280;5827;49.482;7.716;2023-04-21T06:38:45;98450.88;;;8.66;100.00
11542;BME280;5827;49.482;7.716;2023-04-21T06:40:47;98446.25;;;8.50;100.00
11542;BME280;5827;49.482;7.716;2023-04-21T06:42:49;98436.81;;;8.59;100.00
11542;BME280;5827;49.482;7.716;2023-04-21T06:44:50;98442.25;;;8.24;100.00
11542;BME280;5827;49.482;7.716;2023-04-21T06:46:53;98439.88;;;8.51;100.00
11542;BME280;5827;49.482;7.716;2023-04-21T06:48:54;98442.00;;;8.94;100.00
11542;BME280;5827;49.482;7.716;2023-04-21T06:50:56;98457.09;;;8.72;100.00
11542;BME280;5827;49.482;7.716;2023-04-21T06:52:57;98453.13;;;8.74;100.00
11542;BME280;5827;49.482;7.716;2023-04-21T06:54:59;98453.84;;;8.70;100.00
11542;BME280;5827;49.482;7.716;2023-04-21T06:57:00;98461.13;;;8.74;100.00
11542;BME280;5827;49.482;7.716;2023-04-21T06:59:02;98460.22;;;8.97;100.00
11542;BME280;5827;49.482;7.716;2023-04-21T07:01:03;98475.47;;;9.13;100.00
11542;BME280;5827;49.482;7.716;2023-04-21T07:03:06;98460.09;;;8.35;100.00
11542;BME280;5827;49.482;7.716;2023-04-21T07:05:08;98462.72;;;8.58;100.00
11542;BME280;5827;49.482;7.716;2023-04-21T07:07:09;98461.25;;;8.27;100.00
11542;BME280;5827;49.482;7.716;2023-04-21T07:09:13;98466.16;;;8.71;100.00
11542;BME280;5827;49.482;7.716;2023-04-21T07:11:14;98466.72;;;8.44;100.00
11542;BME280;5827;49.482;7.716;2023-04-21T07:13:15;98463.81;;;8.46;100.00
11542;BME280;5827;49.482;7.716;2023-04-21T07:15:17;98464.00;;;8.56;100.00
11542;BME280;5827;49.482;7.716;2023-04-21T07:17:18;98455.94;;;8.96;100.00
11542;BME280;5827;49.482;7.716;2023-04-21T07:19:21;98463.94;;;8.96;100.00
11542;BME280;5827;49.482;7.716;2023-04-21T07:21:23;98470.28;;;9.07;100.00
11542;BME280;5827;49.482;7.716;2023-04-21T07:23:24;98462.38;;;9.12;100.00
11542;BME280;5827;49.482;7.716;2023-04-21T07:25:26;98474.19;;;9.33;100.00
11542;BME280;5827;49.482;7.716;2023-04-21T07:27:27;98463.06;;;8.90;100.00
11542;BME280;5827;49.482;7.716;2023-04-21T07:29:29;98473.28;;;9.10;100.00
11542;BME280;5827;49.482;7.716;2023-04-21T07:31:31;98468.75;;;9.11;100.00
11542;BME280;5827;49.482;7.716;2023-04-21T07:33:32;98464.72;;;9.42;100.00
11542;BME280;5827;49.482;7.716;2023-04-21T07:35:35;98474.66;;;9.80;99.31
11542;BME280;5827;49.482;7.716;2023-04-21T07:37:36;98471.88;;;10.09;100.00
11542;BME280;5827;49.482;7.716;2023-04-21T07:39:39;98487.59;;;10.05;97.41
11542;BME280;5827;49.482;7.716;2023-04-21T07:41:41;98480.19;;;10.29;98.12
11542;BME280;5827;49.482;7.716;2023-04-21T07:43:42;98475.91;;;10.28;98.27
11542;BME280;5827;49.482;7.716;2023-04-21T07:45:44;98479.50;;;10.00;96.58
11542;BME280;5827;49.482;7.716;2023-04-21T07:47:45;98470.97;;;10.03;97.48
11542;BME280;5827;49.482;7.716;2023-04-21T07:49:47;98467.38;;;10.14;98.86
11542;BME280;5827;49.482;7.716;2023-04-21T07:51:49;98471.16;;;10.57;94.68
11542;BME280;5827;49.482;7.716;2023-04-21T07:53:51;98476.56;;;10.62;93.42
11542;BME280;5827;49.482;7.716;2023-04-21T07:55:52;98467.97;;;10.60;93.36
11542;BME280;5827;49.482;7.716;2023-04-21T07:57:54;98466.53;;;10.75;94.35
11542;BME280;5827;49.482;7.716;2023-04-21T07:59:55;98463.31;;;10.29;96.70
11542;BME280;5827;49.482;7.716;2023-04-21T08:01:57;98465.13;;;10.45;94.79
11542;BME280;5827;49.482;7.716;2023-04-21T08:03:58;98458.13;;;10.66;95.05
11542;BME280;5827;49.482;7.716;2023-04-21T08:06:00;98453.28;;;10.90;94.89
11542;BME280;5827;49.482;7.716;2023-04-21T08:08:04;98466.53;;;11.02;92.37
11542;BME280;5827;49.482;7.716;2023-04-21T08:10:07;98467.00;;;10.93;89.83
11542;BME280;5827;49.482;7.716;2023-04-21T08:12:09;98464.72;;;11.39;91.69
11542;BME280;5827;49.482;7.716;2023-04-21T08:14:10;98467.66;;;11.70;90.46
11542;BME280;5827;49.482;7.716;2023-04-21T08:16:12;98455.78;;;11.61;89.53
11542;BME280;5827;49.482;7.716;2023-04-21T08:18:13;98457.56;;;11.82;88.05
11542;BME280;5827;49.482;7.716;2023-04-21T08:20:16;98461.47;;;11.69;86.77
11542;BME280;5827;49.482;7.716;2023-04-21T08:22:17;98446.19;;;12.12;86.73
11542;BME280;5827;49.482;7.716;2023-04-21T08:24:21;98444.75;;;12.00;87.62
11542;BME280;5827;49.482;7.716;2023-04-21T08:26:22;98451.59;;;12.23;84.23
11542;BME280;5827;49.482;7.716;2023-04-21T08:28:24;98443.97;;;11.99;86.61
11542;BME280;5827;49.482;7.716;2023-04-21T08:30:26;98446.88;;;12.55;86.34
11542;BME280;5827;49.482;7.716;2023-04-21T08:32:28;98445.34;;;12.69;85.05
11542;BME280;5827;49.482;7.716;2023-04-21T08:34:30;98441.84;;;12.74;84.54
11542;BME280;5827;49.482;7.716;2023-04-21T08:36:31;98441.81;;;12.64;82.89
11542;BME280;5827;49.482;7.716;2023-04-21T08:38:33;98445.91;;;12.87;81.70
11542;BME280;5827;49.482;7.716;2023-04-21T08:40:37;98440.59;;;13.22;83.13
11542;BME280;5827;49.482;7.716;2023-04-21T08:42:40;98441.94;;;13.35;80.76
11542;BME280;5827;49.482;7.716;2023-04-21T08:44:42;98451.31;;;13.07;78.03
11542;BME280;5827;49.482;7.716;2023-04-21T08:46:44;98441.66;;;13.06;78.65
11542;BME280;5827;49.482;7.716;2023-04-21T08:48:48;98453.16;;;12.96;76.85
11542;BME280;5827;49.482;7.716;2023-04-21T08:50:50;98442.84;;;12.48;78.46
11542;BME280;5827;49.482;7.716;2023-04-21T08:52:53;98442.97;;;13.09;78.44
11542;BME280;5827;49.482;7.716;2023-04-21T08:54:55;98443.19;;;12.82;76.24
11542;BME280;5827;49.482;7.716;2023-04-21T08:56:58;98432.78;;;13.11;77.09
11542;BME280;5827;49.482;7.716;2023-04-21T08:58:59;98431.69;;;13.17;76.82
11542;BME280;5827;49.482;7.716;2023-04-21T09:01:01;98427.63;;;13.09;79.17
11542;BME280;5827;49.482;7.716;2023-04-21T09:03:03;98428.22;;;13.52;78.42
11542;BME280;5827;49.482;7.716;2023-04-21T09:05:07;98434.94;;;13.50;73.96
11542;BME280;5827;49.482;7.716;2023-04-21T09:07:09;98430.88;;;13.72;76.17
11542;BME280;5827;49.482;7.716;2023-04-21T09:09:10;98439.50;;;13.69;73.71
11542;BME280;5827;49.482;7.716;2023-04-21T09:11:13;98425.00;;;13.65;77.44
11542;BME280;5827;49.482;7.716;2023-04-21T09:13:17;98432.28;;;13.29;75.80
11542;BME280;5827;49.482;7.716;2023-04-21T09:15:19;98423.31;;;13.85;77.52
11542;BME280;5827;49.482;7.716;2023-04-21T09:17:26;98440.81;;;13.97;72.16
11542;BME280;5827;49.482;7.716;2023-04-21T09:19:33;98423.25;;;14.05;74.97
11542;BME280;5827;49.482;7.716;2023-04-21T09:21:34;98428.88;;;14.19;74.70
11542;BME280;5827;49.482;7.716;2023-04-21T09:23:40;98434.22;;;14.29;72.15
11542;BME280;5827;49.482;7.716;2023-04-21T09:25:43;98419.97;;;14.18;74.26
11542;BME280;5827;49.482;7.716;2023-04-21T09:27:45;98420.88;;;13.93;73.21
11542;BME280;5827;49.482;7.716;2023-04-21T09:29:48;98422.25;;;13.81;72.28
11542;BME280;5827;49.482;7.716;2023-04-21T09:31:50;98421.66;;;13.99;74.02
11542;BME280;5827;49.482;7.716;2023-04-21T09:33:55;98418.09;;;14.19;74.19
11542;BME280;5827;49.482;7.716;2023-04-21T09:35:59;98419.69;;;14.30;70.95
11542;BME280;5827;49.482;7.716;2023-04-21T09:38:02;98415.09;;;14.31;70.36
11542;BME280;5827;49.482;7.716;2023-04-21T09:40:05;98417.75;;;14.41;70.41
11542;BME280;5827;49.482;7.716;2023-04-21T09:42:09;98407.91;;;14.76;69.65
11542;BME280;5827;49.482;7.716;2023-04-21T09:44:11;98409.25;;;14.73;66.72
11542;BME280;5827;49.482;7.716;2023-04-21T09:46:15;98406.03;;;14.66;66.65
11542;BME280;5827;49.482;7.716;2023-04-21T09:48:17;98404.31;;;14.85;68.78
11542;BME280;5827;49.482;7.716;2023-04-21T09:50:19;98404.47;;;15.33;68.26
11542;BME280;5827;49.482;7.716;2023-04-21T09:52:22;98412.13;;;15.26;65.56
11542;BME280;5827;49.482;7.716;2023-04-21T09:54:28;98418.03;;;15.28;64.50
11542;BME280;5827;49.482;7.716;2023-04-21T09:56:32;98410.09;;;15.42;65.46
11542;BME280;5827;49.482;7.716;2023-04-21T09:58:43;98403.53;;;15.48;64.78
11542;BME280;5827;49.482;7.716;2023-04-21T10:00:46;98413.44;;;15.29;65.38
11542;BME280;5827;49.482;7.716;2023-04-21T10:02:50;98410.69;;;15.34;64.75
11542;BME280;5827;49.482;7.716;2023-04-21T10:04:53;98410.31;;;14.77;64.58
11542;BME280;5827;49.482;7.716;2023-04-21T10:06:55;98406.66;;;14.97;66.96
11542;BME280;5827;49.482;7.716;2023-04-21T10:08:57;98405.78;;;15.07;65.92
11542;BME280;5827;49.482;7.716;2023-04-21T10:10:59;98404.16;;;15.06;61.92
11542;BME280;5827;49.482;7.716;2023-04-21T10:13:01;98391.16;;;15.13;65.23
11542;BME280;5827;49.482;7.716;2023-04-21T10:15:04;98390.75;;;15.30;65.50
11542;BME280;5827;49.482;7.716;2023-04-21T10:17:08;98388.31;;;15.57;66.07
11542;BME280;5827;49.482;7.716;2023-04-21T10:19:23;98388.13;;;15.19;64.98
11542;BME280;5827;49.482;7.716;2023-04-21T10:21:25;98391.50;;;15.01;63.85
11542;BME280;5827;49.482;7.716;2023-04-21T10:23:29;98385.94;;;15.56;64.41
11542;BME280;5827;49.482;7.716;2023-04-21T10:25:31;98393.88;;;15.42;63.05
11542;BME280;5827;49.482;7.716;2023-04-21T10:27:34;98384.72;;;15.38;64.10
11542;BME280;5827;49.482;7.716;2023-04-21T10:29:36;98374.66;;;16.01;64.97
11542;BME280;5827;49.482;7.716;2023-04-21T10:31:49;98377.69;;;15.71;64.26
11542;BME280;5827;49.482;7.716;2023-04-21T10:34:20;98370.13;;;15.73;62.96
11542;BME280;5827;49.482;7.716;2023-04-21T10:36:24;98364.28;;;15.90;63.42
11542;BME280;5827;49.482;7.716;2023-04-21T10:38:33;98361.88;;;16.07;61.72
11542;BME280;5827;49.482;7.716;2023-04-21T10:40:35;98368.84;;;16.13;61.23
11542;BME280;5827;49.482;7.716;2023-04-21T10:42:37;98360.75;;;16.13;62.00
11542;BME280;5827;49.482;7.716;2023-04-21T10:44:40;98358.72;;;16.24;61.04
11542;BME280;5827;49.482;7.716;2023-04-21T10:46:45;98362.63;;;15.89;60.29
11542;BME280;5827;49.482;7.716;2023-04-21T10:48:51;98353.56;;;15.80;61.04
11542;BME280;5827;49.482;7.716;2023-04-21T10:50:52;98344.03;;;15.87;61.42
11542;BME280;5827;49.482;7.716;2023-04-21T10:52:58;98355.63;;;16.31;61.30
11542;BME280;5827;49.482;7.716;2023-04-21T10:55:07;98342.72;;;16.27;61.18